Myrtle Beach, South Carolina
Current Conditions -  °F | °C
As of 4:55 AM on Tuesday 21 Oct 2014 (Local Time) from KMYR Reporting Station
Scattered Clouds Scattered Clouds  
Wind Chill: 15°   Ceiling: Unl
Heat Index: 15°   Visibility: 10mi
Dew Point: 13°   Wind: 3mph
Humidity: 88%   Direction: 350°N
Pressure: 29.94"   Gusts: NA
Location:  33.69°N, 78.88°W
Report Text: KMYR 210855Z AUTO 35003KT 10SM SCT060 15/13 A2994 RMK AO1 57010
Loading
Personal Weather Stations






























Interactive Weather Map
Tropical Storm Tracking
New forecast layout! Learn more

10-Day Weather Forecast

Advertisements
Track Severe Weather on mobile